createdAt,value
2022-09-28T00:01:23.300Z,13.45
2022-09-28T00:03:51.586Z,11.68
2022-09-28T00:06:20.026Z,9.93
2022-09-28T00:08:50.107Z,13.23
2022-09-28T00:11:19.015Z,11.48
2022-09-28T00:13:46.390Z,13.52
2022-09-28T00:16:14.753Z,11.55
2022-09-28T00:18:42.397Z,12.10
2022-09-28T00:21:12.928Z,11.77
2022-09-28T00:24:00.820Z,10.65
2022-09-28T00:26:28.782Z,13.30
2022-09-28T00:28:57.190Z,13.25
2022-09-28T00:31:25.216Z,14.23
2022-09-28T00:33:55.273Z,13.55
2022-09-28T00:36:22.543Z,15.85
2022-09-28T00:38:49.965Z,13.10
2022-09-28T00:41:17.262Z,13.52
2022-09-28T00:43:44.420Z,12.05
2022-09-28T00:46:15.344Z,16.90
2022-09-28T00:48:46.224Z,14.75
2022-09-28T00:51:13.841Z,12.93
2022-09-28T00:53:44.215Z,14.30
2022-09-28T00:56:13.361Z,14.13
2022-09-28T00:58:42.543Z,13.80
2022-09-28T01:01:09.915Z,13.95
2022-09-28T01:03:38.214Z,23.00
2022-09-28T01:06:07.156Z,12.55
2022-09-28T01:08:35.046Z,18.35
2022-09-28T01:11:02.190Z,14.90
2022-09-28T01:13:31.545Z,15.02
2022-09-28T01:16:04.752Z,13.40
2022-09-28T01:18:34.896Z,20.98
2022-09-28T01:21:05.985Z,19.38
2022-09-28T01:23:39.978Z,17.17
2022-09-28T01:26:25.617Z,14.60
2022-09-28T01:31:22.732Z,15.05
2022-09-28T01:33:52.304Z,16.42
2022-09-28T01:36:28.222Z,12.40
2022-09-28T01:39:02.045Z,13.85
2022-09-28T01:41:31.606Z,16.10
2022-09-28T01:44:03.023Z,13.30
2022-09-28T01:46:36.806Z,15.63
2022-09-28T01:49:11.870Z,12.55
2022-09-28T01:51:57.478Z,12.60
2022-09-28T01:56:53.947Z,11.23
2022-09-28T01:59:25.786Z,14.95
2022-09-28T02:01:55.377Z,14.70
2022-09-28T02:04:25.689Z,16.33
2022-09-28T02:06:52.822Z,12.63
2022-09-28T02:09:22.574Z,13.05
2022-09-28T02:11:52.066Z,13.80
2022-09-28T02:14:19.868Z,17.98
2022-09-28T02:16:48.810Z,10.95
2022-09-28T02:19:15.993Z,12.35
2022-09-28T02:21:47.361Z,12.50
2022-09-28T02:24:25.137Z,13.20
2022-09-28T02:26:52.772Z,12.65
2022-09-28T02:29:19.906Z,13.80
2022-09-28T02:31:47.135Z,10.85
2022-09-28T02:34:14.439Z,11.38
2022-09-28T02:36:41.605Z,13.35
2022-09-28T02:39:14.085Z,12.82
2022-09-28T02:41:56.609Z,12.45
2022-09-28T02:44:42.661Z,13.18
2022-09-28T02:47:30.153Z,12.73
2022-09-28T02:50:10.661Z,12.88
2022-09-28T02:52:46.407Z,12.82
2022-09-28T02:55:24.722Z,10.23
2022-09-28T02:58:04.128Z,16.80
2022-09-28T03:00:33.554Z,12.02
2022-09-28T03:03:12.713Z,14.07
2022-09-28T03:05:48.374Z,12.65
2022-09-28T03:08:28.529Z,10.23
2022-09-28T03:11:01.804Z,14.30
2022-09-28T03:13:29.408Z,14.00
2022-09-28T03:16:17.002Z,13.27
2022-09-28T03:18:44.593Z,13.35
2022-09-28T03:21:12.099Z,14.13
2022-09-28T03:23:39.466Z,14.07
2022-09-28T03:26:08.094Z,12.65
2022-09-28T03:28:36.315Z,19.70
2022-09-28T03:31:03.889Z,13.75
2022-09-28T03:33:31.062Z,14.75
2022-09-28T03:35:58.252Z,12.88
2022-09-28T03:38:25.418Z,21.88
2022-09-28T03:40:53.785Z,15.07
2022-09-28T03:43:21.159Z,19.83
2022-09-28T03:45:58.435Z,21.35
2022-09-28T03:48:31.860Z,21.55
2022-09-28T03:51:00.823Z,18.35
2022-09-28T03:53:29.643Z,18.50
2022-09-28T03:55:56.982Z,19.77
2022-09-28T03:58:24.169Z,29.27
2022-09-28T04:00:51.429Z,22.17
2022-09-28T04:03:18.630Z,21.50
2022-09-28T04:05:49.924Z,19.63
2022-09-28T04:08:17.173Z,23.58
2022-09-28T04:10:44.322Z,23.00
2022-09-28T04:13:11.518Z,26.77
2022-09-28T04:15:38.677Z,23.95
2022-09-28T04:18:09.654Z,27.85
2022-09-28T04:20:36.945Z,21.65
2022-09-28T04:23:04.109Z,23.17
2022-09-28T04:25:31.285Z,22.42
2022-09-28T04:28:17.200Z,24.90
2022-09-28T04:30:46.954Z,22.95
2022-09-28T04:33:14.173Z,19.85
2022-09-28T04:35:41.530Z,20.48
2022-09-28T04:38:08.688Z,22.65
2022-09-28T04:40:35.903Z,20.92
2022-09-28T04:43:03.079Z,26.02
2022-09-28T04:45:30.445Z,20.75
2022-09-28T04:47:57.651Z,22.70
2022-09-28T04:50:24.840Z,19.27
2022-09-28T04:52:52.013Z,18.27
2022-09-28T04:55:20.583Z,23.88
2022-09-28T04:57:48.217Z,34.60
2022-09-28T05:00:15.483Z,20.00
2022-09-28T05:02:42.710Z,34.55
2022-09-28T05:05:09.879Z,81.18
2022-09-28T05:07:37.093Z,42.17
2022-09-28T05:10:04.322Z,28.67
2022-09-28T05:12:31.456Z,27.42
2022-09-28T05:14:58.986Z,75.65
2022-09-28T05:17:26.112Z,43.05
2022-09-28T05:19:53.258Z,60.25
2022-09-28T05:22:20.421Z,38.28
2022-09-28T05:24:47.775Z,18.77
2022-09-28T05:27:15.060Z,21.27
2022-09-28T05:29:42.231Z,29.92
2022-09-28T05:32:09.389Z,23.58
2022-09-28T05:34:36.720Z,39.92
2022-09-28T05:37:04.293Z,61.38
2022-09-28T05:39:31.428Z,34.35
2022-09-28T05:41:58.563Z,32.92
2022-09-28T05:44:26.031Z,24.60
2022-09-28T05:46:54.704Z,25.58
2022-09-28T05:49:21.940Z,23.45
2022-09-28T05:51:49.103Z,71.07
2022-09-28T05:54:16.605Z,21.95
2022-09-28T05:56:44.126Z,23.63
2022-09-28T05:59:12.164Z,16.25
2022-09-28T06:01:39.345Z,20.92
2022-09-28T06:04:06.605Z,26.88
2022-09-28T06:06:35.549Z,27.10
2022-09-28T06:09:02.730Z,58.55
2022-09-28T06:11:29.873Z,59.47
2022-09-28T06:13:57.037Z,47.05
2022-09-28T06:16:24.380Z,39.25
2022-09-28T06:18:51.544Z,25.42
2022-09-28T06:21:18.677Z,40.85
2022-09-28T06:23:49.238Z,22.52
2022-09-28T06:26:17.100Z,27.88
2022-09-28T06:28:44.270Z,41.40
2022-09-28T06:31:11.518Z,66.55
2022-09-28T06:33:38.730Z,47.60
2022-09-28T06:36:05.939Z,25.88
2022-09-28T06:38:33.130Z,74.32
2022-09-28T06:41:00.370Z,18.90
2022-09-28T06:43:32.155Z,70.38
2022-09-28T06:46:03.016Z,20.55
2022-09-28T06:48:31.393Z,33.90
2022-09-28T06:50:58.534Z,50.20
2022-09-28T06:53:27.214Z,20.25
2022-09-28T06:55:54.784Z,51.30
2022-09-28T06:58:22.509Z,20.85
2022-09-28T07:00:51.123Z,19.77
2022-09-28T07:03:20.092Z,20.13
2022-09-28T07:05:48.972Z,26.50
2022-09-28T07:08:16.643Z,21.60
2022-09-28T07:10:47.878Z,21.83
2022-09-28T07:13:39.388Z,28.77
2022-09-28T07:16:03.138Z,44.47
2022-09-28T07:18:30.470Z,30.80
2022-09-28T07:20:57.830Z,23.95
2022-09-28T07:23:27.553Z,25.45
2022-09-28T07:25:54.879Z,19.50
2022-09-28T07:28:22.348Z,28.13
2022-09-28T07:30:49.609Z,65.45
2022-09-28T07:33:17.610Z,23.10
2022-09-28T07:35:52.408Z,63.83
2022-09-28T07:38:19.570Z,23.80
2022-09-28T07:41:05.822Z,21.20
2022-09-28T07:43:33.181Z,43.45
2022-09-28T07:46:00.504Z,62.15
2022-09-28T07:48:27.845Z,36.47
2022-09-28T07:50:56.742Z,44.10
2022-09-28T07:53:24.980Z,22.75
2022-09-28T07:55:52.988Z,51.70
2022-09-28T07:58:20.735Z,69.40
2022-09-28T08:00:48.802Z,22.10
2022-09-28T08:03:16.905Z,19.67
2022-09-28T08:05:44.270Z,20.08
2022-09-28T08:08:11.524Z,27.48
2022-09-28T08:10:41.590Z,19.25
2022-09-28T08:13:11.693Z,24.38
2022-09-28T08:15:39.132Z,20.85
2022-09-28T08:18:06.635Z,17.95
2022-09-28T08:20:53.134Z,16.23
2022-09-28T08:23:20.567Z,19.38
2022-09-28T08:25:52.566Z,15.40
2022-09-28T08:28:19.806Z,13.27
2022-09-28T08:30:47.704Z,15.55
2022-09-28T08:33:15.462Z,16.35
2022-09-28T08:35:43.087Z,17.00
2022-09-28T08:38:10.950Z,15.75
2022-09-28T08:41:04.689Z,15.32
2022-09-28T08:43:32.270Z,14.52
2022-09-28T08:46:00.650Z,14.98
2022-09-28T08:48:57.082Z,14.45
2022-09-28T08:51:46.037Z,11.07
2022-09-28T08:54:20.797Z,11.30
2022-09-28T08:56:47.908Z,11.38
2022-09-28T08:59:19.788Z,10.73
2022-09-28T09:01:56.010Z,14.13
2022-09-28T09:04:24.925Z,11.75
2022-09-28T09:07:03.270Z,12.40
2022-09-28T09:09:33.229Z,15.10
2022-09-28T09:12:00.772Z,13.20
2022-09-28T09:14:27.948Z,11.88
2022-09-28T09:17:04.245Z,12.35
2022-09-28T09:19:32.953Z,10.10
2022-09-28T09:22:04.796Z,11.88
2022-09-28T09:24:48.375Z,11.57
2022-09-28T09:27:18.741Z,11.25
2022-09-28T09:30:01.893Z,17.17
2022-09-28T09:32:38.560Z,16.80
2022-09-28T09:35:14.814Z,12.32
2022-09-28T09:37:42.005Z,10.88
2022-09-28T09:40:09.196Z,8.88
2022-09-28T09:42:45.164Z,11.43
2022-09-28T09:45:15.153Z,15.32
2022-09-28T09:47:44.885Z,15.25
2022-09-28T09:50:30.597Z,15.75
2022-09-28T09:53:07.106Z,12.50
2022-09-28T09:55:34.573Z,11.13
2022-09-28T09:58:16.876Z,10.65
2022-09-28T10:00:45.708Z,11.13
2022-09-28T10:03:17.995Z,14.40
2022-09-28T10:05:46.857Z,11.00
2022-09-28T10:08:18.874Z,9.98
2022-09-28T10:10:57.234Z,15.70
2022-09-28T10:13:25.819Z,13.00
2022-09-28T10:15:53.040Z,9.88
2022-09-28T10:18:21.405Z,34.40
2022-09-28T10:20:49.746Z,14.77
2022-09-28T10:23:37.365Z,6.63
2022-09-28T10:26:08.276Z,40.75
2022-09-28T10:28:55.703Z,184.23
2022-09-28T10:31:42.051Z,169.07
2022-09-28T10:34:11.521Z,43.75
2022-09-28T10:36:50.705Z,8.75
2022-09-28T10:39:37.724Z,10.93
2022-09-28T10:42:07.948Z,7.60
2022-09-28T10:44:36.245Z,5.15
2022-09-28T10:47:05.217Z,4.65
2022-09-28T10:49:43.114Z,5.65
2022-09-28T10:52:32.234Z,8.52
2022-09-28T10:54:59.526Z,4.13
2022-09-28T10:57:30.843Z,3.80
2022-09-28T10:59:58.619Z,6.78
2022-09-28T11:02:36.519Z,3.72
2022-09-28T11:05:05.834Z,4.47
2022-09-28T11:07:34.464Z,4.68
2022-09-28T11:10:02.872Z,3.10
2022-09-28T11:12:33.991Z,3.30
2022-09-28T11:15:05.807Z,4.88
2022-09-28T11:17:34.316Z,3.40
2022-09-28T11:20:03.181Z,3.75
2022-09-28T11:22:33.766Z,4.38
2022-09-28T11:25:19.281Z,5.15
2022-09-28T11:27:52.340Z,5.88
2022-09-28T11:30:42.761Z,3.22
2022-09-28T11:33:22.157Z,4.35
2022-09-28T11:35:50.080Z,2.78
2022-09-28T11:38:37.476Z,2.40
2022-09-28T11:41:07.716Z,3.22
2022-09-28T11:43:48.809Z,3.63
2022-09-28T11:46:16.005Z,3.13
2022-09-28T11:48:46.587Z,3.17
2022-09-28T11:51:19.553Z,2.33
2022-09-28T11:53:51.881Z,6.70
2022-09-28T11:56:35.150Z,3.65
2022-09-28T11:59:06.813Z,3.28
2022-09-28T12:01:47.083Z,2.70
2022-09-28T12:04:23.356Z,2.00
2022-09-28T12:06:52.375Z,2.38
2022-09-28T12:09:25.795Z,2.72
2022-09-28T12:11:56.596Z,2.83
2022-09-28T12:14:35.147Z,4.53
2022-09-28T12:17:07.946Z,3.05
2022-09-28T12:19:50.301Z,3.28
2022-09-28T12:22:24.137Z,2.55
2022-09-28T12:24:53.485Z,1.85
2022-09-28T12:27:41.098Z,4.15
2022-09-28T12:30:22.342Z,2.67
2022-09-28T12:32:52.511Z,3.90
2022-09-28T12:35:38.269Z,3.35
2022-09-28T12:40:49.082Z,1.88
2022-09-28T12:43:22.198Z,1.40
2022-09-28T12:46:10.573Z,1.52
2022-09-28T12:49:03.055Z,1.83
2022-09-28T12:51:36.016Z,1.70
2022-09-28T12:54:15.521Z,3.03
2022-09-28T12:56:48.412Z,1.95
2022-09-28T12:59:27.837Z,1.17
2022-09-28T13:02:00.906Z,2.35
2022-09-28T13:04:35.169Z,2.00
2022-09-28T13:07:17.584Z,2.28
2022-09-28T13:09:47.738Z,1.30
2022-09-28T13:12:19.290Z,1.38
2022-09-28T13:15:01.547Z,2.05
2022-09-28T13:17:40.655Z,1.30
2022-09-28T13:20:23.316Z,4.38
2022-09-28T13:23:15.042Z,1.77
2022-09-28T13:25:45.701Z,1.00
2022-09-28T13:28:15.604Z,0.60
2022-09-28T13:30:45.043Z,0.45
2022-09-28T13:33:18.187Z,0.50
2022-09-28T13:35:45.379Z,0.63
2022-09-28T13:38:18.611Z,1.48
2022-09-28T13:41:04.691Z,0.93
2022-09-28T13:43:50.599Z,2.53
2022-09-28T13:46:30.000Z,1.30
2022-09-28T13:49:02.233Z,0.90
2022-09-28T13:51:40.060Z,1.40
2022-09-28T13:54:07.351Z,2.45
2022-09-28T13:56:49.102Z,0.98
2022-09-28T13:59:23.345Z,2.30
2022-09-28T14:02:02.880Z,1.30
2022-09-28T14:04:51.744Z,0.68
2022-09-28T14:10:02.197Z,4.20
2022-09-28T14:12:32.123Z,0.77
2022-09-28T14:14:59.538Z,1.00
2022-09-28T14:17:27.398Z,0.93
2022-09-28T14:19:57.014Z,2.00
2022-09-28T14:22:42.412Z,2.50
2022-09-28T14:25:15.271Z,0.40
2022-09-28T14:28:04.876Z,1.95
2022-09-28T14:30:44.638Z,1.38
2022-09-28T14:33:25.485Z,1.27
2022-09-28T14:36:02.051Z,0.90
2022-09-28T14:39:08.131Z,0.77
2022-09-28T14:41:38.051Z,0.85
2022-09-28T14:44:08.415Z,1.50
2022-09-28T14:46:35.771Z,1.00
2022-09-28T14:49:04.585Z,1.85
2022-09-28T14:51:33.845Z,2.35
2022-09-28T14:54:13.072Z,1.40
2022-09-28T14:56:58.903Z,1.35
2022-09-28T15:02:11.490Z,2.55
2022-09-28T15:04:43.389Z,11.88
2022-09-28T15:07:43.446Z,0.63
2022-09-28T15:10:31.336Z,2.47
2022-09-28T15:13:01.961Z,1.30
2022-09-28T15:15:37.402Z,0.82
2022-09-28T15:20:34.330Z,1.83
2022-09-28T15:23:01.455Z,0.80
2022-09-28T15:25:29.889Z,4.00
2022-09-28T15:27:58.608Z,1.58
2022-09-28T15:30:31.712Z,2.00
2022-09-28T15:33:19.442Z,4.53
2022-09-28T15:35:52.355Z,1.23
2022-09-28T15:38:19.528Z,4.03
2022-09-28T15:40:47.735Z,2.53
2022-09-28T15:43:30.807Z,7.72
2022-09-28T15:46:02.949Z,5.30
2022-09-28T15:48:42.049Z,1.73
2022-09-28T15:51:11.918Z,3.90
2022-09-28T15:53:51.293Z,2.38
2022-09-28T15:56:18.518Z,2.63
2022-09-28T15:59:05.661Z,1.17
2022-09-28T16:01:36.652Z,2.97
2022-09-28T16:04:23.304Z,5.13
2022-09-28T16:07:26.014Z,4.13
2022-09-28T16:09:58.645Z,5.15
2022-09-28T16:12:31.395Z,3.22
2022-09-28T16:14:59.866Z,2.72
2022-09-28T16:17:32.327Z,2.80
2022-09-28T16:20:19.122Z,2.83
2022-09-28T16:22:46.712Z,4.43
2022-09-28T16:25:23.909Z,5.50
2022-09-28T16:27:51.767Z,4.30
2022-09-28T16:30:21.632Z,3.00
2022-09-28T16:32:51.051Z,4.88
2022-09-28T16:35:19.849Z,5.30
2022-09-28T16:37:48.781Z,6.10
2022-09-28T16:40:15.993Z,4.88
2022-09-28T16:42:48.841Z,4.80
2022-09-28T16:45:21.149Z,4.43
2022-09-28T16:47:50.721Z,6.53
2022-09-28T16:50:17.954Z,5.20
2022-09-28T16:53:04.001Z,5.13
2022-09-28T16:55:46.971Z,5.90
2022-09-28T16:58:14.407Z,5.53
2022-09-28T17:00:43.479Z,6.03
2022-09-28T17:03:14.871Z,6.72
2022-09-28T17:05:42.421Z,9.40
2022-09-28T17:08:11.840Z,9.80
2022-09-28T17:11:09.889Z,8.82
2022-09-28T17:13:33.910Z,11.02
2022-09-28T17:16:03.192Z,16.67
2022-09-28T17:18:31.965Z,18.38
2022-09-28T17:21:00.489Z,18.92
2022-09-28T17:23:27.682Z,13.65
2022-09-28T17:25:55.614Z,12.50
2022-09-28T17:28:25.873Z,13.98
2022-09-28T17:30:53.235Z,10.13
2022-09-28T17:33:20.869Z,9.50
2022-09-28T17:35:48.519Z,11.00
2022-09-28T17:38:16.429Z,10.13
2022-09-28T17:40:44.897Z,9.90
2022-09-28T17:43:12.420Z,8.00
2022-09-28T17:45:41.094Z,8.43
2022-09-28T17:48:11.748Z,8.77
2022-09-28T17:50:41.249Z,9.88
2022-09-28T17:53:12.020Z,9.25
2022-09-28T17:55:39.713Z,9.57
2022-09-28T17:58:23.280Z,11.32
2022-09-28T18:00:51.541Z,12.25
2022-09-28T18:03:22.361Z,12.65
2022-09-28T18:05:50.920Z,10.77
2022-09-28T18:08:19.439Z,13.35
2022-09-28T18:10:46.921Z,11.60
2022-09-28T18:13:14.462Z,13.00
2022-09-28T18:15:41.820Z,9.82
2022-09-28T18:18:12.930Z,10.30
2022-09-28T18:20:41.361Z,9.07
2022-09-28T18:23:08.553Z,9.18
2022-09-28T18:25:35.701Z,9.02
2022-09-28T18:28:02.868Z,9.20
2022-09-28T18:30:30.025Z,9.93
2022-09-28T18:32:57.145Z,9.02
2022-09-28T18:35:24.343Z,8.93
2022-09-28T18:37:51.815Z,8.65
2022-09-28T18:40:20.104Z,9.02
2022-09-28T18:42:47.765Z,10.20
2022-09-28T18:45:15.357Z,9.65
2022-09-28T18:47:43.381Z,10.15
2022-09-28T18:50:15.465Z,11.45
2022-09-28T18:52:44.037Z,10.40
2022-09-28T18:55:11.632Z,12.10
2022-09-28T18:57:40.465Z,12.02
2022-09-28T19:00:09.273Z,11.50
2022-09-28T19:02:36.854Z,9.65
2022-09-28T19:05:05.676Z,13.05
2022-09-28T19:07:33.637Z,14.80
2022-09-28T19:10:00.843Z,12.95
2022-09-28T19:12:28.052Z,11.90
2022-09-28T19:14:55.217Z,14.02
2022-09-28T19:17:22.440Z,11.27
2022-09-28T19:19:51.632Z,14.80
2022-09-28T19:22:18.828Z,11.90
2022-09-28T19:24:46.006Z,14.73
2022-09-28T19:27:13.180Z,9.98
2022-09-28T19:29:40.435Z,10.38
2022-09-28T19:32:07.601Z,13.23
2022-09-28T19:34:34.752Z,13.07
2022-09-28T19:37:03.885Z,11.23
2022-09-28T19:39:31.485Z,10.73
2022-09-28T19:41:59.810Z,12.05
2022-09-28T19:44:28.145Z,16.98
2022-09-28T19:46:59.953Z,10.40
2022-09-28T19:49:32.907Z,13.85
2022-09-28T19:52:16.593Z,15.73
2022-09-28T19:54:45.250Z,11.48
2022-09-28T19:57:14.567Z,12.80
2022-09-28T19:59:41.888Z,12.38
2022-09-28T20:02:10.654Z,10.98
2022-09-28T20:04:37.867Z,11.10
2022-09-28T20:07:05.299Z,12.02
2022-09-28T20:09:32.908Z,15.15
2022-09-28T20:12:00.170Z,10.45
2022-09-28T20:14:32.016Z,12.40
2022-09-28T20:17:03.599Z,12.60
2022-09-28T20:19:30.772Z,21.05
2022-09-28T20:22:02.054Z,16.77
2022-09-28T20:24:29.419Z,19.75
2022-09-28T20:26:56.679Z,24.95
2022-09-28T20:29:24.430Z,23.45
2022-09-28T20:31:52.055Z,19.08
2022-09-28T20:34:19.649Z,19.88
2022-09-28T20:36:46.878Z,15.02
2022-09-28T20:39:14.115Z,15.63
2022-09-28T20:41:41.300Z,11.27
2022-09-28T20:44:08.462Z,15.82
2022-09-28T20:46:36.549Z,10.57
2022-09-28T20:49:04.186Z,13.20
2022-09-28T20:51:31.348Z,13.00
2022-09-28T20:53:59.037Z,10.05
2022-09-28T20:56:31.065Z,10.85
2022-09-28T20:58:58.420Z,10.15
2022-09-28T21:01:27.051Z,9.32
2022-09-28T21:03:55.722Z,9.57
2022-09-28T21:06:24.676Z,11.30
2022-09-28T21:08:52.108Z,11.23
2022-09-28T21:11:20.670Z,11.05
2022-09-28T21:13:48.265Z,9.75
2022-09-28T21:16:16.359Z,7.70
2022-09-28T21:18:43.630Z,10.80
2022-09-28T21:21:13.205Z,8.65
2022-09-28T21:23:40.645Z,9.77
2022-09-28T21:26:15.913Z,9.73
2022-09-28T21:31:12.468Z,9.75
2022-09-28T21:33:39.662Z,11.75
2022-09-28T21:36:07.920Z,10.32
2022-09-28T21:38:35.460Z,7.75
2022-09-28T21:41:02.685Z,10.38
2022-09-28T21:43:31.534Z,8.98
2022-09-28T21:45:59.049Z,8.43
2022-09-28T21:48:27.573Z,11.07
2022-09-28T21:50:55.945Z,7.45
2022-09-28T21:53:23.675Z,11.32
2022-09-28T21:55:55.820Z,11.52
2022-09-28T21:58:24.241Z,10.15
2022-09-28T22:01:01.324Z,8.27
2022-09-28T22:03:28.956Z,9.32
2022-09-28T22:05:56.089Z,9.80
2022-09-28T22:08:23.299Z,9.85
2022-09-28T22:11:05.635Z,14.20
2022-09-28T22:13:34.140Z,9.30
2022-09-28T22:16:01.447Z,10.75
2022-09-28T22:18:29.416Z,9.98
2022-09-28T22:21:04.337Z,10.90
2022-09-28T22:23:31.473Z,13.65
2022-09-28T22:25:59.887Z,10.25
2022-09-28T22:28:27.121Z,13.30
2022-09-28T22:30:54.581Z,14.57
2022-09-28T22:33:21.834Z,14.35
2022-09-28T22:35:51.139Z,16.02
2022-09-28T22:38:18.958Z,15.90
2022-09-28T22:40:54.254Z,13.73
2022-09-28T22:43:23.327Z,16.65
2022-09-28T22:45:50.694Z,13.27
2022-09-28T22:48:18.559Z,16.67
2022-09-28T22:50:50.007Z,15.40
2022-09-28T22:53:17.373Z,14.77
2022-09-28T22:55:44.558Z,17.75
2022-09-28T22:58:11.786Z,14.73
2022-09-28T23:00:39.040Z,17.77
2022-09-28T23:03:06.642Z,18.00
2022-09-28T23:05:33.873Z,16.30
2022-09-28T23:08:01.442Z,15.25
2022-09-28T23:10:28.577Z,15.45
2022-09-28T23:12:55.949Z,17.35
2022-09-28T23:15:23.456Z,17.27
2022-09-28T23:17:53.841Z,15.45
2022-09-28T23:20:24.345Z,19.88
2022-09-28T23:22:51.644Z,13.88
2022-09-28T23:25:19.734Z,14.68
2022-09-28T23:27:47.488Z,13.80
2022-09-28T23:30:15.520Z,19.05
2022-09-28T23:32:42.765Z,14.70
2022-09-28T23:35:10.428Z,16.73
2022-09-28T23:37:37.783Z,16.45
2022-09-28T23:40:05.923Z,15.45
2022-09-28T23:42:34.729Z,15.55
2022-09-28T23:45:01.878Z,20.00
2022-09-28T23:47:29.041Z,15.43
2022-09-28T23:49:56.196Z,18.13
2022-09-28T23:52:23.394Z,14.90
2022-09-28T23:54:50.562Z,14.93
2022-09-28T23:57:17.776Z,15.85
2022-09-28T23:59:44.958Z,13.88
